createdAt,value
2018-03-22T00:01:57.209Z,101633.00
2018-03-22T00:04:24.753Z,101629.70
2018-03-22T00:06:52.327Z,101631.97
2018-03-22T00:09:19.870Z,101624.72
2018-03-22T00:11:47.430Z,101625.73
2018-03-22T00:14:15.351Z,101625.58
2018-03-22T00:16:42.913Z,101625.41
2018-03-22T00:19:10.468Z,101622.14
2018-03-22T00:21:38.046Z,101617.25
2018-03-22T00:24:05.567Z,101613.84
2018-03-22T00:26:33.120Z,101606.59
2018-03-22T00:29:00.681Z,101600.67
2018-03-22T00:31:28.524Z,101596.98
2018-03-22T00:33:56.113Z,101589.25
2018-03-22T00:36:23.674Z,101581.72
2018-03-22T00:38:51.249Z,101584.05
2018-03-22T00:41:19.002Z,101573.86
2018-03-22T00:43:46.565Z,101576.59
2018-03-22T00:46:14.113Z,101575.41
2018-03-22T00:48:41.980Z,101568.27
2018-03-22T00:51:09.547Z,101561.30
2018-03-22T00:53:37.067Z,101558.92
2018-03-22T00:56:05.275Z,101557.29
2018-03-22T00:58:32.843Z,101543.70
2018-03-22T01:01:00.404Z,101550.70
2018-03-22T01:03:28.250Z,101541.59
2018-03-22T01:05:55.783Z,101546.15
2018-03-22T01:08:23.384Z,101537.64
2018-03-22T01:10:50.909Z,101540.61
2018-03-22T01:13:18.476Z,101530.09
2018-03-22T01:15:46.067Z,101527.89
2018-03-22T01:18:13.917Z,101522.04
2018-03-22T01:20:41.464Z,101514.42
2018-03-22T01:23:09.348Z,101511.66
2018-03-22T01:25:36.868Z,101503.09
2018-03-22T01:28:04.436Z,101499.12
2018-03-22T01:30:42.800Z,101493.21
2018-03-22T01:33:10.380Z,101482.31
2018-03-22T01:35:37.911Z,101477.13
2018-03-22T01:38:05.443Z,101469.90
2018-03-22T01:40:32.967Z,101461.58
2018-03-22T01:43:00.473Z,101461.25
2018-03-22T01:45:27.997Z,101453.25
2018-03-22T01:47:55.914Z,101452.11
2018-03-22T01:50:23.462Z,101449.20
2018-03-22T01:53:02.874Z,101449.95
2018-03-22T01:55:30.387Z,101440.98
2018-03-22T01:57:57.944Z,101431.54
2018-03-22T02:00:25.534Z,101428.38
2018-03-22T02:02:53.037Z,101428.43
2018-03-22T02:05:20.541Z,101430.74
2018-03-22T02:07:48.371Z,101416.82
2018-03-22T02:10:15.886Z,101405.48
2018-03-22T02:12:43.454Z,101398.15
2018-03-22T02:15:11.269Z,101390.61
2018-03-22T02:17:38.794Z,101382.47
2018-03-22T02:20:06.341Z,101381.27
2018-03-22T02:22:33.924Z,101375.25
2018-03-22T02:25:01.456Z,101373.52
2018-03-22T02:27:28.969Z,101364.34
2018-03-22T02:29:56.506Z,101368.14
2018-03-22T02:32:24.028Z,101359.08
2018-03-22T02:34:51.640Z,101363.65
2018-03-22T02:37:19.186Z,101353.36
2018-03-22T02:39:46.748Z,101354.89
2018-03-22T02:42:14.270Z,101347.67
2018-03-22T02:44:41.809Z,101343.98
2018-03-22T02:47:09.346Z,101339.81
2018-03-22T02:49:36.861Z,101331.44
2018-03-22T02:52:04.427Z,101328.99
2018-03-22T02:54:31.951Z,101328.89
2018-03-22T02:56:59.495Z,101318.95
2018-03-22T02:59:27.036Z,101310.20
2018-03-22T03:01:54.545Z,101305.16
2018-03-22T03:04:22.046Z,101307.38
2018-03-22T03:06:49.587Z,101304.21
2018-03-22T03:09:17.125Z,101298.89
2018-03-22T03:11:44.686Z,101292.72
2018-03-22T03:14:12.196Z,101293.52
2018-03-22T03:16:39.700Z,101290.98
2018-03-22T03:19:07.531Z,101277.44
2018-03-22T03:21:35.074Z,101274.48
2018-03-22T03:24:02.578Z,101272.38
2018-03-22T03:26:30.090Z,101267.95
2018-03-22T03:28:57.669Z,101261.92
2018-03-22T03:31:25.189Z,101248.75
2018-03-22T03:33:52.778Z,101247.00
2018-03-22T03:36:20.559Z,101234.61
2018-03-22T03:38:48.076Z,101223.08
2018-03-22T03:41:15.822Z,101223.03
2018-03-22T03:43:43.392Z,101223.72
2018-03-22T03:46:10.903Z,101219.66
2018-03-22T03:48:38.414Z,101215.44
2018-03-22T03:51:05.939Z,101211.43
2018-03-22T03:53:33.443Z,101205.43
2018-03-22T03:56:01.000Z,101199.09
2018-03-22T03:58:28.810Z,101198.67
2018-03-22T04:00:56.325Z,101184.72
2018-03-22T04:03:23.862Z,101182.19
2018-03-22T04:05:51.407Z,101192.63
2018-03-22T04:08:18.975Z,101188.30
2018-03-22T04:10:46.482Z,101181.88
2018-03-22T04:13:14.030Z,101167.59
2018-03-22T04:15:41.529Z,101155.31
2018-03-22T04:18:09.086Z,101159.57
2018-03-22T04:20:36.637Z,101149.14
2018-03-22T04:23:04.152Z,101137.67
2018-03-22T04:25:31.709Z,101140.61
2018-03-22T04:27:59.550Z,101130.91
2018-03-22T04:30:27.064Z,101127.50
2018-03-22T04:32:54.596Z,101131.87
2018-03-22T04:35:22.157Z,101128.50
2018-03-22T04:37:49.685Z,101122.12
2018-03-22T04:40:17.447Z,101129.86
2018-03-22T04:42:44.989Z,101125.00
2018-03-22T04:45:12.498Z,101123.91
2018-03-22T04:47:40.012Z,101115.30
2018-03-22T04:50:07.579Z,101116.62
2018-03-22T04:52:35.107Z,101119.45
2018-03-22T04:55:02.620Z,101102.83
2018-03-22T04:57:30.175Z,101106.51
2018-03-22T04:59:57.931Z,101100.88
2018-03-22T05:02:25.492Z,101104.77
2018-03-22T05:04:53.049Z,101094.81
2018-03-22T05:07:20.569Z,101100.88
2018-03-22T05:09:48.110Z,101087.34
2018-03-22T05:12:15.696Z,101085.77
2018-03-22T05:14:43.218Z,101074.66
2018-03-22T05:17:10.725Z,101079.00
2018-03-22T05:19:38.260Z,101074.05
2018-03-22T05:22:05.794Z,101077.46
2018-03-22T05:24:33.350Z,101076.98
2018-03-22T05:27:00.911Z,101077.50
2018-03-22T05:29:28.782Z,101074.03
2018-03-22T05:31:56.291Z,101065.71
2018-03-22T05:34:23.836Z,101073.14
2018-03-22T05:36:51.345Z,101074.52
2018-03-22T05:39:18.868Z,101071.09
2018-03-22T05:41:46.407Z,101074.75
2018-03-22T05:44:13.934Z,101068.83
2018-03-22T05:46:41.538Z,101066.61
2018-03-22T05:49:09.113Z,101064.81
2018-03-22T05:51:36.658Z,101063.38
2018-03-22T05:54:04.589Z,101066.25
2018-03-22T05:56:32.149Z,101061.93
2018-03-22T05:58:59.707Z,101053.03
2018-03-22T06:01:27.314Z,101044.66
2018-03-22T06:03:54.863Z,101037.16
2018-03-22T06:06:22.384Z,101033.41
2018-03-22T06:08:49.973Z,101025.33
2018-03-22T06:11:17.512Z,101014.27
2018-03-22T06:13:45.060Z,101010.80
2018-03-22T06:16:12.597Z,101002.81
2018-03-22T06:18:40.437Z,100992.88
2018-03-22T06:21:07.963Z,100982.51
2018-03-22T06:23:35.494Z,100979.73
2018-03-22T06:26:03.022Z,100969.61
2018-03-22T06:28:30.870Z,100971.47
2018-03-22T06:30:58.701Z,100972.30
2018-03-22T06:33:26.244Z,100956.15
2018-03-22T06:35:53.761Z,100953.64
2018-03-22T06:38:21.283Z,100953.25
2018-03-22T06:40:48.857Z,100943.00
2018-03-22T06:43:16.367Z,100950.20
2018-03-22T06:45:44.166Z,100927.70
2018-03-22T06:48:11.709Z,100937.43
2018-03-22T06:50:39.505Z,100930.27
2018-03-22T06:53:07.032Z,100927.73
2018-03-22T06:55:34.835Z,100923.34
2018-03-22T06:58:02.354Z,100923.60
2018-03-22T07:00:30.143Z,100913.06
2018-03-22T07:02:57.726Z,100915.52
2018-03-22T07:05:25.457Z,100912.70
2018-03-22T07:07:52.983Z,100909.91
2018-03-22T07:10:20.547Z,100901.95
2018-03-22T07:12:48.053Z,100906.73
2018-03-22T07:15:15.560Z,100906.15
2018-03-22T07:17:43.107Z,100901.00
2018-03-22T07:20:10.600Z,100898.13
2018-03-22T07:22:38.093Z,100901.58
2018-03-22T07:25:05.716Z,100893.15
2018-03-22T07:27:33.233Z,100884.37
2018-03-22T07:30:00.994Z,100874.29
2018-03-22T07:32:28.702Z,100862.34
2018-03-22T07:34:56.217Z,100866.48
2018-03-22T07:37:23.794Z,100858.39
2018-03-22T07:39:51.386Z,100850.34
2018-03-22T07:42:18.905Z,100843.28
2018-03-22T07:44:49.403Z,100842.39
2018-03-22T07:47:16.957Z,100839.50
2018-03-22T07:49:44.493Z,100834.60
2018-03-22T07:52:12.407Z,100832.27
2018-03-22T07:54:39.979Z,100819.00
2018-03-22T07:57:07.577Z,100822.39
2018-03-22T07:59:35.116Z,100817.44
2018-03-22T08:02:02.769Z,100823.63
2018-03-22T08:04:30.613Z,100819.30
2018-03-22T08:06:58.149Z,100816.53
2018-03-22T08:09:25.693Z,100813.03
2018-03-22T08:11:53.607Z,100808.08
2018-03-22T08:14:21.133Z,100799.98
2018-03-22T08:16:48.747Z,100791.00
2018-03-22T08:19:16.276Z,100792.39
2018-03-22T08:21:43.877Z,100790.34
2018-03-22T08:24:11.427Z,100779.58
2018-03-22T08:26:38.977Z,100782.03
2018-03-22T08:29:06.508Z,100780.97
2018-03-22T08:31:34.104Z,100785.86
2018-03-22T08:34:01.721Z,100783.55
2018-03-22T08:36:29.461Z,100784.20
2018-03-22T08:38:57.011Z,100769.58
2018-03-22T08:41:24.584Z,100774.66
2018-03-22T08:43:52.083Z,100768.48
2018-03-22T08:46:19.619Z,100764.47
2018-03-22T08:48:47.127Z,100765.03
2018-03-22T08:51:14.629Z,100765.69
2018-03-22T08:53:42.163Z,100769.05
2018-03-22T08:56:09.680Z,100765.80
2018-03-22T08:58:37.217Z,100760.88
2018-03-22T09:01:04.811Z,100762.55
2018-03-22T09:03:32.341Z,100754.44
2018-03-22T09:05:59.863Z,100749.86
2018-03-22T09:08:27.411Z,100747.80
2018-03-22T09:10:54.993Z,100739.95
2018-03-22T09:13:22.496Z,100735.19
2018-03-22T09:15:50.068Z,100731.36
2018-03-22T09:18:17.592Z,100722.63
2018-03-22T09:20:45.431Z,100724.67
2018-03-22T09:23:12.988Z,100721.67
2018-03-22T09:25:40.836Z,100724.52
2018-03-22T09:28:08.355Z,100717.00
2018-03-22T09:30:35.902Z,100713.45
2018-03-22T09:33:03.460Z,100706.00
2018-03-22T09:35:30.996Z,100701.69
2018-03-22T09:37:58.515Z,100698.08
2018-03-22T09:40:27.436Z,100698.91
2018-03-22T09:42:54.977Z,100701.48
2018-03-22T09:45:22.539Z,100692.47
2018-03-22T09:47:50.320Z,100688.22
2018-03-22T09:50:17.820Z,100699.34
2018-03-22T09:52:45.644Z,100687.91
2018-03-22T09:55:13.151Z,100692.80
2018-03-22T09:57:40.708Z,100683.57
2018-03-22T10:00:08.343Z,100688.16
2018-03-22T10:02:37.018Z,100684.92
2018-03-22T10:05:04.562Z,100685.11
2018-03-22T10:07:32.120Z,100684.39
2018-03-22T10:09:59.736Z,100687.06
2018-03-22T10:12:27.260Z,100681.80
2018-03-22T10:14:54.814Z,100677.64
2018-03-22T10:17:22.557Z,100673.41
2018-03-22T10:19:50.158Z,100671.67
2018-03-22T10:22:17.702Z,100664.23
2018-03-22T10:24:45.227Z,100673.24
2018-03-22T10:27:12.744Z,100666.84
2018-03-22T10:29:40.283Z,100663.38
2018-03-22T10:32:07.858Z,100667.78
2018-03-22T10:34:35.371Z,100660.02
2018-03-22T10:37:02.979Z,100657.45
2018-03-22T10:39:30.615Z,100657.84
2018-03-22T10:41:58.156Z,100655.13
2018-03-22T10:44:25.721Z,100648.27
2018-03-22T10:46:53.241Z,100652.73
2018-03-22T10:49:20.784Z,100648.44
2018-03-22T10:51:48.365Z,100652.13
2018-03-22T10:54:16.728Z,100644.37
2018-03-22T10:56:44.295Z,100640.84
2018-03-22T10:59:12.241Z,100635.87
2018-03-22T11:01:45.285Z,100640.70
2018-03-22T11:04:12.825Z,100632.52
2018-03-22T11:06:46.411Z,100632.12
2018-03-22T11:09:13.967Z,100629.61
2018-03-22T11:11:41.510Z,100625.94
2018-03-22T11:14:09.046Z,100622.75
2018-03-22T11:16:36.937Z,100616.64
2018-03-22T11:19:04.799Z,100615.39
2018-03-22T11:21:32.317Z,100615.16
2018-03-22T11:23:59.871Z,100612.72
2018-03-22T11:26:27.414Z,100609.48
2018-03-22T11:28:55.251Z,100600.28
2018-03-22T11:31:22.816Z,100601.70
2018-03-22T11:33:50.565Z,100593.92
2018-03-22T11:36:18.349Z,100592.66
2018-03-22T11:38:45.881Z,100588.07
2018-03-22T11:41:13.414Z,100580.44
2018-03-22T11:43:41.234Z,100581.16
2018-03-22T11:46:09.009Z,100580.96
2018-03-22T11:48:36.529Z,100581.83
2018-03-22T11:51:04.428Z,100579.36
2018-03-22T11:53:31.968Z,100575.87
2018-03-22T11:55:59.465Z,100577.62
2018-03-22T11:58:27.005Z,100571.71
2018-03-22T12:00:54.541Z,100575.47
2018-03-22T12:03:22.108Z,100568.34
2018-03-22T12:05:49.848Z,100567.74
2018-03-22T12:08:17.380Z,100569.43
2018-03-22T12:10:45.122Z,100562.36
2018-03-22T12:13:12.669Z,100560.74
2018-03-22T12:15:40.210Z,100561.98
2018-03-22T12:18:07.722Z,100559.34
2018-03-22T12:20:35.238Z,100561.02
2018-03-22T12:23:02.766Z,100558.92
2018-03-22T12:25:30.281Z,100550.43
2018-03-22T12:27:58.045Z,100544.30
2018-03-22T12:30:25.592Z,100548.92
2018-03-22T12:32:53.369Z,100549.77
2018-03-22T12:35:20.881Z,100541.51
2018-03-22T12:37:48.803Z,100535.69
2018-03-22T12:40:16.303Z,100534.02
2018-03-22T12:42:43.814Z,100529.94
2018-03-22T12:45:11.347Z,100533.34
2018-03-22T12:47:39.145Z,100529.88
2018-03-22T12:50:06.644Z,100532.34
2018-03-22T12:52:34.172Z,100523.25
2018-03-22T12:55:02.127Z,100527.28
2018-03-22T12:57:29.663Z,100519.73
2018-03-22T12:59:57.250Z,100522.72
2018-03-22T13:02:25.028Z,100524.52
2018-03-22T13:04:52.575Z,100516.33
2018-03-22T13:07:20.155Z,100517.03
2018-03-22T13:09:47.765Z,100523.27
2018-03-22T13:12:15.417Z,100521.87
2018-03-22T13:14:43.006Z,100523.55
2018-03-22T13:17:10.535Z,100521.89
2018-03-22T13:19:38.289Z,100521.55
2018-03-22T13:22:05.909Z,100514.34
2018-03-22T13:24:33.541Z,100515.80
2018-03-22T13:27:01.065Z,100512.59
2018-03-22T13:29:28.623Z,100515.80
2018-03-22T13:31:56.138Z,100513.83
2018-03-22T13:34:23.862Z,100513.55
2018-03-22T13:36:51.756Z,100520.34
2018-03-22T13:39:19.345Z,100517.59
2018-03-22T13:41:46.864Z,100518.91
2018-03-22T13:44:15.120Z,100512.03
2018-03-22T13:46:42.964Z,100520.44
2018-03-22T13:49:10.516Z,100517.30
2018-03-22T13:51:38.125Z,100515.44
2018-03-22T13:54:05.681Z,100515.45
2018-03-22T13:56:33.628Z,100509.90
2018-03-22T13:59:01.613Z,100511.61
2018-03-22T14:01:29.140Z,100512.33
2018-03-22T14:03:56.656Z,100513.02
2018-03-22T14:06:24.260Z,100514.23
2018-03-22T14:08:51.844Z,100513.77
2018-03-22T14:11:19.353Z,100512.73
2018-03-22T14:13:46.927Z,100515.70
2018-03-22T14:16:14.481Z,100510.31
2018-03-22T14:18:42.046Z,100507.52
2018-03-22T14:21:09.580Z,100506.53
2018-03-22T14:23:37.121Z,100505.78
2018-03-22T14:26:04.952Z,100501.41
2018-03-22T14:28:32.601Z,100501.46
2018-03-22T14:31:00.108Z,100492.79
2018-03-22T14:33:27.724Z,100489.58
2018-03-22T14:35:55.264Z,100487.84
2018-03-22T14:38:22.810Z,100487.59
2018-03-22T14:40:50.342Z,100484.66
2018-03-22T14:43:17.900Z,100482.17
2018-03-22T14:45:45.431Z,100481.33
2018-03-22T14:48:12.962Z,100481.97
2018-03-22T14:50:41.101Z,100482.23
2018-03-22T14:53:08.622Z,100479.33
2018-03-22T14:55:36.154Z,100477.23
2018-03-22T14:58:03.693Z,100478.47
2018-03-22T15:00:31.273Z,100480.47
2018-03-22T15:02:58.835Z,100481.44
2018-03-22T15:05:26.432Z,100480.27
2018-03-22T15:07:53.970Z,100482.84
2018-03-22T15:10:21.634Z,100479.37
2018-03-22T15:12:49.133Z,100479.16
2018-03-22T15:15:16.696Z,100476.58
2018-03-22T15:17:44.230Z,100477.98
2018-03-22T15:20:11.997Z,100474.45
2018-03-22T15:22:39.524Z,100473.69
2018-03-22T15:25:07.040Z,100470.27
2018-03-22T15:27:34.605Z,100475.59
2018-03-22T15:30:02.129Z,100469.91
2018-03-22T15:32:29.734Z,100473.19
2018-03-22T15:34:57.305Z,100473.25
2018-03-22T15:37:24.820Z,100466.72
2018-03-22T15:39:52.696Z,100476.42
2018-03-22T15:42:20.242Z,100466.42
2018-03-22T15:44:47.801Z,100469.59
2018-03-22T15:47:15.328Z,100468.69
2018-03-22T15:49:42.849Z,100467.33
2018-03-22T15:52:10.397Z,100465.39
2018-03-22T15:54:37.956Z,100466.84
2018-03-22T15:57:05.491Z,100463.72
2018-03-22T15:59:33.205Z,100471.42
2018-03-22T16:02:00.727Z,100468.25
2018-03-22T16:04:28.556Z,100468.32
2018-03-22T16:06:56.039Z,100465.38
2018-03-22T16:09:23.548Z,100472.61
2018-03-22T16:11:51.468Z,100476.78
2018-03-22T16:14:19.260Z,100480.53
2018-03-22T16:16:46.818Z,100476.57
2018-03-22T16:19:14.531Z,100476.20
2018-03-22T16:21:42.153Z,100485.72
2018-03-22T16:24:09.691Z,100488.74
2018-03-22T16:26:37.263Z,100477.63
2018-03-22T16:29:04.797Z,100472.63
2018-03-22T16:31:32.320Z,100470.73
2018-03-22T16:33:59.860Z,100471.73
2018-03-22T16:36:27.384Z,100475.74
2018-03-22T16:38:54.894Z,100470.17
2018-03-22T16:41:22.464Z,100472.15
2018-03-22T16:43:50.019Z,100475.76
2018-03-22T16:46:17.563Z,100470.83
2018-03-22T16:48:45.182Z,100470.48
2018-03-22T16:51:12.890Z,100469.63
2018-03-22T16:53:40.435Z,100470.20
2018-03-22T16:56:07.984Z,100472.70
2018-03-22T16:58:35.641Z,100475.48
2018-03-22T17:01:03.145Z,100475.97
2018-03-22T17:03:30.931Z,100476.19
2018-03-22T17:05:58.446Z,100477.52
2018-03-22T17:08:26.212Z,100484.03
2018-03-22T17:10:53.749Z,100476.73
2018-03-22T17:13:21.261Z,100478.56
2018-03-22T17:15:48.772Z,100483.27
2018-03-22T17:18:16.394Z,100481.55
2018-03-22T17:20:43.913Z,100479.38
2018-03-22T17:23:11.411Z,100484.30
2018-03-22T17:25:39.010Z,100484.45
2018-03-22T17:28:06.533Z,100480.77
2018-03-22T17:30:34.054Z,100487.64
2018-03-22T17:33:01.607Z,100484.15
2018-03-22T17:35:29.383Z,100484.52
2018-03-22T17:37:56.955Z,100475.25
2018-03-22T17:40:24.502Z,100475.55
2018-03-22T17:42:52.013Z,100477.55
2018-03-22T17:45:19.828Z,100478.69
2018-03-22T17:47:47.360Z,100469.99
2018-03-22T17:50:14.858Z,100478.19
2018-03-22T17:52:42.365Z,100483.59
2018-03-22T17:55:09.966Z,100483.95
2018-03-22T17:57:37.754Z,100485.69
2018-03-22T18:00:06.821Z,100486.59
2018-03-22T18:02:34.413Z,100479.78
2018-03-22T18:05:01.937Z,100480.53
2018-03-22T18:07:29.490Z,100488.59
2018-03-22T18:09:57.070Z,100491.23
2018-03-22T18:12:24.657Z,100483.19
2018-03-22T18:14:52.252Z,100482.41
2018-03-22T18:17:20.407Z,100494.07
2018-03-22T18:19:47.917Z,100489.79
2018-03-22T18:22:15.446Z,100494.59
2018-03-22T18:24:43.067Z,100493.05
2018-03-22T18:27:10.629Z,100482.98
2018-03-22T18:29:38.198Z,100484.23
2018-03-22T18:32:06.155Z,100482.70
2018-03-22T18:34:33.716Z,100479.77
2018-03-22T18:37:01.348Z,100477.91
2018-03-22T18:39:28.950Z,100477.42
2018-03-22T18:41:56.469Z,100477.49
2018-03-22T18:44:24.178Z,100478.09
2018-03-22T18:46:51.858Z,100476.13
2018-03-22T18:49:19.406Z,100478.56
2018-03-22T18:51:46.948Z,100484.17
2018-03-22T18:54:15.136Z,100475.86
2018-03-22T18:56:42.709Z,100478.22
2018-03-22T18:59:10.326Z,100474.54
2018-03-22T19:01:37.905Z,100479.20
2018-03-22T19:04:05.415Z,100481.19
2018-03-22T19:06:32.944Z,100475.77
2018-03-22T19:09:00.533Z,100468.81
2018-03-22T19:11:28.185Z,100474.03
2018-03-22T19:13:55.918Z,100467.19
2018-03-22T19:16:23.484Z,100465.18
2018-03-22T19:18:51.178Z,100464.39
2018-03-22T19:21:18.813Z,100461.15
2018-03-22T19:23:46.376Z,100460.52
2018-03-22T19:26:13.996Z,100458.58
2018-03-22T19:28:41.601Z,100462.82
2018-03-22T19:31:09.243Z,100463.63
2018-03-22T19:33:36.772Z,100457.41
2018-03-22T19:36:04.927Z,100459.91
2018-03-22T19:38:32.506Z,100470.31
2018-03-22T19:41:00.045Z,100467.05
2018-03-22T19:43:27.686Z,100473.62
2018-03-22T19:45:55.263Z,100473.96
2018-03-22T19:48:22.830Z,100473.92
2018-03-22T19:50:50.361Z,100463.73
2018-03-22T19:53:17.928Z,100467.98
2018-03-22T19:55:45.532Z,100473.52
2018-03-22T19:58:13.047Z,100475.77
2018-03-22T20:00:40.607Z,100476.67
2018-03-22T20:03:08.197Z,100485.30
2018-03-22T20:05:35.811Z,100479.04
2018-03-22T20:08:03.332Z,100477.83
2018-03-22T20:10:30.882Z,100471.50
2018-03-22T20:12:58.915Z,100472.75
2018-03-22T20:15:27.022Z,100468.44
2018-03-22T20:17:55.122Z,100473.30
2018-03-22T20:20:22.679Z,100470.56
2018-03-22T20:22:50.267Z,100475.11
2018-03-22T20:25:18.206Z,100478.83
2018-03-22T20:27:45.710Z,100473.72
2018-03-22T20:30:13.312Z,100469.30
2018-03-22T20:32:42.061Z,100473.41
2018-03-22T20:35:09.630Z,100475.36
2018-03-22T20:37:37.491Z,100479.18
2018-03-22T20:40:05.158Z,100483.42
2018-03-22T20:42:32.732Z,100477.16
2018-03-22T20:45:00.295Z,100473.83
2018-03-22T20:47:28.345Z,100471.91
2018-03-22T20:49:55.967Z,100481.64
2018-03-22T20:52:23.532Z,100474.97
2018-03-22T20:54:51.291Z,100476.29
2018-03-22T20:57:19.024Z,100473.58
2018-03-22T20:59:46.593Z,100467.04
2018-03-22T21:02:14.131Z,100469.52
2018-03-22T21:04:41.659Z,100466.03
2018-03-22T21:07:09.379Z,100475.49
2018-03-22T21:09:37.009Z,100471.84
2018-03-22T21:12:04.543Z,100474.34
2018-03-22T21:14:32.112Z,100473.55
2018-03-22T21:16:59.824Z,100471.25
2018-03-22T21:19:28.100Z,100472.63
2018-03-22T21:21:55.685Z,100475.20
2018-03-22T21:24:23.198Z,100477.05
2018-03-22T21:26:50.825Z,100472.94
2018-03-22T21:29:18.607Z,100470.37
2018-03-22T21:31:46.147Z,100472.03
2018-03-22T21:34:13.956Z,100472.38
2018-03-22T21:36:41.515Z,100471.75
2018-03-22T21:39:09.079Z,100464.13
2018-03-22T21:41:36.701Z,100465.91
2018-03-22T21:44:16.458Z,100467.30
2018-03-22T21:46:44.060Z,100469.00
2018-03-22T21:49:12.270Z,100467.48
2018-03-22T21:51:39.804Z,100459.41
2018-03-22T21:54:07.439Z,100455.93
2018-03-22T21:56:35.289Z,100465.19
2018-03-22T21:59:02.864Z,100464.14
2018-03-22T22:01:30.667Z,100468.36
2018-03-22T22:03:58.201Z,100459.42
2018-03-22T22:06:27.680Z,100460.67
2018-03-22T22:08:55.561Z,100463.66
2018-03-22T22:11:23.136Z,100467.48
2018-03-22T22:13:51.075Z,100473.56
2018-03-22T22:16:18.723Z,100476.06
2018-03-22T22:18:46.477Z,100479.69
2018-03-22T22:21:14.090Z,100477.81
2018-03-22T22:23:42.632Z,100480.45
2018-03-22T22:26:10.180Z,100479.20
2018-03-22T22:28:38.592Z,100477.46
2018-03-22T22:31:06.164Z,100476.27
2018-03-22T22:33:33.751Z,100466.94
2018-03-22T22:36:01.423Z,100464.05
2018-03-22T22:38:29.273Z,100466.06
2018-03-22T22:40:56.797Z,100467.11
2018-03-22T22:43:24.442Z,100463.91
2018-03-22T22:45:51.962Z,100467.66
2018-03-22T22:48:19.551Z,100461.75
2018-03-22T22:50:47.140Z,100458.76
2018-03-22T22:53:14.658Z,100455.14
2018-03-22T22:55:42.162Z,100454.78
2018-03-22T22:58:09.706Z,100450.53
2018-03-22T23:00:37.231Z,100444.00
2018-03-22T23:03:04.779Z,100451.78
2018-03-22T23:05:32.431Z,100450.48
2018-03-22T23:08:00.279Z,100448.16
2018-03-22T23:10:27.796Z,100455.69
2018-03-22T23:12:55.351Z,100449.63
2018-03-22T23:15:22.877Z,100451.23
2018-03-22T23:17:50.424Z,100446.77
2018-03-22T23:20:18.057Z,100449.73
2018-03-22T23:22:45.606Z,100453.80
2018-03-22T23:25:13.123Z,100445.03
2018-03-22T23:27:40.648Z,100443.73
2018-03-22T23:30:08.178Z,100438.00
2018-03-22T23:32:35.693Z,100440.47
2018-03-22T23:35:03.249Z,100437.37
2018-03-22T23:37:30.771Z,100436.48
2018-03-22T23:39:58.281Z,100434.59
2018-03-22T23:42:25.816Z,100434.10
2018-03-22T23:44:53.332Z,100437.23
2018-03-22T23:47:21.176Z,100432.37
2018-03-22T23:49:48.757Z,100441.97
2018-03-22T23:52:16.297Z,100434.45
2018-03-22T23:54:43.809Z,100433.44
2018-03-22T23:57:11.845Z,100427.66
2018-03-22T23:59:39.247Z,100418.47
